createdAt,value
2023-10-19T00:00:51.736Z,17.07
2023-10-19T00:03:21.471Z,17.70
2023-10-19T00:05:48.126Z,17.63
2023-10-19T00:08:21.909Z,18.17
2023-10-19T00:11:11.759Z,18.60
2023-10-19T00:13:40.190Z,19.77
2023-10-19T00:16:23.513Z,20.58
2023-10-19T00:18:51.118Z,18.13
2023-10-19T00:21:30.069Z,19.98
2023-10-19T00:23:58.862Z,19.08
2023-10-19T00:26:26.760Z,20.50
2023-10-19T00:28:56.825Z,19.05
2023-10-19T00:31:24.184Z,19.27
2023-10-19T00:33:55.696Z,18.15
2023-10-19T00:36:23.869Z,19.08
2023-10-19T00:38:51.583Z,18.37
2023-10-19T00:41:31.275Z,17.42
2023-10-19T00:44:03.977Z,17.73
2023-10-19T00:46:44.992Z,19.13
2023-10-19T00:49:16.554Z,18.02
2023-10-19T00:52:19.115Z,17.27
2023-10-19T00:54:49.915Z,18.00
2023-10-19T00:57:20.954Z,17.52
2023-10-19T00:59:48.722Z,19.13
2023-10-19T01:02:19.295Z,18.33
2023-10-19T01:04:52.078Z,18.67
2023-10-19T01:07:28.483Z,17.70
2023-10-19T01:10:05.210Z,18.75
2023-10-19T01:12:39.970Z,18.70
2023-10-19T01:15:18.509Z,16.88
2023-10-19T01:17:59.297Z,17.07
2023-10-19T01:20:30.467Z,16.08
2023-10-19T01:23:11.945Z,18.65
2023-10-19T01:26:11.490Z,18.05
2023-10-19T01:28:42.149Z,17.55
2023-10-19T01:31:24.013Z,16.93
2023-10-19T01:33:51.526Z,19.02
2023-10-19T01:36:26.040Z,17.95
2023-10-19T01:38:55.519Z,17.23
2023-10-19T01:41:24.791Z,17.73
2023-10-19T01:43:56.334Z,17.93
2023-10-19T01:46:32.373Z,17.65
2023-10-19T01:48:58.973Z,19.23
2023-10-19T01:51:27.863Z,18.75
2023-10-19T01:53:56.684Z,16.95
2023-10-19T01:56:23.985Z,17.67
2023-10-19T01:58:55.863Z,17.27
2023-10-19T02:01:28.753Z,19.27
2023-10-19T02:04:04.899Z,15.55
2023-10-19T02:06:41.459Z,17.52
2023-10-19T02:09:25.053Z,16.43
2023-10-19T02:11:54.517Z,17.27
2023-10-19T02:14:21.762Z,18.23
2023-10-19T02:16:54.315Z,17.63
2023-10-19T02:19:22.875Z,18.15
2023-10-19T02:21:54.298Z,15.60
2023-10-19T02:24:21.330Z,15.63
2023-10-19T02:26:52.756Z,17.05
2023-10-19T02:29:19.811Z,16.98
2023-10-19T02:31:48.823Z,17.98
2023-10-19T02:34:18.353Z,15.27
2023-10-19T02:36:46.651Z,17.15
2023-10-19T02:39:15.537Z,16.08
2023-10-19T02:41:47.846Z,17.25
2023-10-19T02:44:20.294Z,17.88
2023-10-19T02:46:59.344Z,16.40
2023-10-19T02:49:27.522Z,16.60
2023-10-19T02:51:54.778Z,15.73
2023-10-19T02:54:24.348Z,15.75
2023-10-19T02:57:00.227Z,16.70
2023-10-19T02:59:29.966Z,15.67
2023-10-19T03:02:02.800Z,16.63
2023-10-19T03:04:30.466Z,15.73
2023-10-19T05:39:52.930Z,17.55
2023-10-19T05:42:19.620Z,19.58
2023-10-19T05:44:46.103Z,17.48
2023-10-19T05:47:12.663Z,17.58
2023-10-19T05:49:39.192Z,17.93
2023-10-19T05:52:05.790Z,17.38
2023-10-19T05:54:32.492Z,17.13
2023-10-19T05:56:59.768Z,16.98
2023-10-19T05:59:27.756Z,17.45
2023-10-19T06:01:54.645Z,16.87
2023-10-19T06:04:22.041Z,16.75
2023-10-19T06:06:50.060Z,16.45
2023-10-19T06:09:18.209Z,16.13
2023-10-19T06:11:44.992Z,17.30
2023-10-19T06:14:11.683Z,16.53
2023-10-19T06:16:38.570Z,18.17
2023-10-19T06:19:05.654Z,16.05
2023-10-19T06:21:34.014Z,17.77
2023-10-19T06:24:00.704Z,18.02
2023-10-19T06:26:27.361Z,16.57
2023-10-19T06:28:58.440Z,18.25
2023-10-19T06:31:25.281Z,17.52
2023-10-19T06:33:51.920Z,16.65
2023-10-19T06:36:19.064Z,16.23
2023-10-19T06:38:46.143Z,17.23
2023-10-19T06:41:14.032Z,16.63
2023-10-19T06:43:41.180Z,16.42
2023-10-19T06:46:08.010Z,16.48
2023-10-19T06:48:34.615Z,16.58
2023-10-19T06:51:01.422Z,16.60
2023-10-19T06:53:27.969Z,16.67
2023-10-19T06:55:55.860Z,18.50
2023-10-19T06:58:22.475Z,17.25
2023-10-19T07:00:57.629Z,19.08
2023-10-19T07:03:24.550Z,16.43
2023-10-19T07:05:54.396Z,17.88
2023-10-19T07:08:22.451Z,18.55
2023-10-19T07:10:51.033Z,16.42
2023-10-19T07:13:18.238Z,16.25
2023-10-19T07:15:50.390Z,16.90
2023-10-19T07:18:17.336Z,17.60
2023-10-19T07:20:44.447Z,16.55
2023-10-19T07:23:20.092Z,16.70
2023-10-19T07:25:49.202Z,17.30
2023-10-19T07:28:17.337Z,16.70
2023-10-19T07:30:44.877Z,16.90
2023-10-19T07:33:18.579Z,18.17
2023-10-19T07:35:47.938Z,16.50
2023-10-19T07:38:18.078Z,19.67
2023-10-19T07:40:44.993Z,16.37
2023-10-19T07:43:11.603Z,16.13
2023-10-19T07:45:38.297Z,16.20
2023-10-19T07:48:11.814Z,16.73
2023-10-19T07:50:41.972Z,16.63
2023-10-19T07:53:10.310Z,16.17
2023-10-19T07:55:38.846Z,16.30
2023-10-19T07:58:06.073Z,18.05
2023-10-19T08:00:34.920Z,15.48
2023-10-19T08:03:01.739Z,15.88
2023-10-19T08:05:28.920Z,16.77
2023-10-19T08:07:55.638Z,15.88
2023-10-19T08:10:22.327Z,15.65
2023-10-19T08:12:49.894Z,17.08
2023-10-19T08:15:18.339Z,15.45
2023-10-19T08:17:47.762Z,16.17
2023-10-19T08:20:18.662Z,16.40
2023-10-19T08:22:47.914Z,15.57
2023-10-19T08:25:17.969Z,15.43
2023-10-19T08:27:51.041Z,14.13
2023-10-19T08:30:23.908Z,14.17
2023-10-19T08:32:53.031Z,14.80
2023-10-19T08:35:27.517Z,14.70
2023-10-19T08:37:56.190Z,14.73
2023-10-19T08:40:24.701Z,15.40
2023-10-19T08:42:52.064Z,14.20
2023-10-19T08:45:19.203Z,14.40
2023-10-19T08:48:02.069Z,14.30
2023-10-19T08:50:34.722Z,13.25
2023-10-19T08:53:06.234Z,14.63
2023-10-19T08:55:48.697Z,15.17
2023-10-19T08:58:20.687Z,14.15
2023-10-19T09:01:07.447Z,13.85
2023-10-19T09:03:34.187Z,14.23
2023-10-19T09:06:06.350Z,14.27
2023-10-19T09:08:42.223Z,13.83
2023-10-19T09:11:10.198Z,14.10
2023-10-19T09:13:50.033Z,14.13
2023-10-19T09:16:18.640Z,13.30
2023-10-19T09:18:48.246Z,14.48
2023-10-19T09:21:25.878Z,13.40
2023-10-19T09:23:54.306Z,14.43
2023-10-19T09:26:22.718Z,14.80
2023-10-19T09:28:51.412Z,13.77
2023-10-19T09:31:23.792Z,13.82
2023-10-19T09:33:50.331Z,13.47
2023-10-19T09:36:17.236Z,13.75
2023-10-19T09:38:52.483Z,15.00
2023-10-19T09:41:21.207Z,14.40
2023-10-19T09:43:50.478Z,14.05
2023-10-19T09:46:23.788Z,14.87
2023-10-19T09:48:50.747Z,14.35
2023-10-19T09:51:20.334Z,12.93
2023-10-19T09:53:52.605Z,12.82
2023-10-19T09:56:22.803Z,12.93
2023-10-19T09:58:56.560Z,12.93
2023-10-19T10:01:23.237Z,12.93
2023-10-19T10:03:54.446Z,12.48
2023-10-19T10:06:52.180Z,12.98
2023-10-19T10:09:25.159Z,14.38
2023-10-19T10:11:54.624Z,12.70
2023-10-19T10:14:25.494Z,12.93
2023-10-19T10:17:04.769Z,14.00
2023-10-19T10:19:31.986Z,13.07
2023-10-19T10:22:22.455Z,13.95
2023-10-19T10:24:58.348Z,13.73
2023-10-19T10:27:25.040Z,12.07
2023-10-19T10:30:07.716Z,11.77
2023-10-19T10:32:46.398Z,12.15
2023-10-19T10:35:42.135Z,12.30
2023-10-19T10:38:10.692Z,12.67
2023-10-19T10:41:03.933Z,13.30
2023-10-19T10:43:31.102Z,13.63
2023-10-19T10:46:08.666Z,13.38
2023-10-19T10:48:42.667Z,17.95
2023-10-19T10:51:32.316Z,14.83
2023-10-19T10:53:59.804Z,14.25
2023-10-19T10:56:26.516Z,13.23
2023-10-19T10:58:53.311Z,11.88
2023-10-19T11:01:30.989Z,13.65
2023-10-19T11:04:15.547Z,12.40
2023-10-19T11:06:52.790Z,14.13
2023-10-19T11:09:19.793Z,13.27
2023-10-19T11:11:47.380Z,13.30
2023-10-19T11:14:14.557Z,12.07
2023-10-19T11:16:41.531Z,13.67
2023-10-19T11:19:08.252Z,12.82
2023-10-19T11:21:35.474Z,13.90
2023-10-19T11:24:03.071Z,12.20
2023-10-19T11:26:30.331Z,12.00
2023-10-19T11:29:05.472Z,9.77
2023-10-19T11:31:42.645Z,12.98
2023-10-19T11:34:10.878Z,11.82
2023-10-19T11:36:38.002Z,13.82
2023-10-19T11:39:05.744Z,12.98
2023-10-19T11:41:32.270Z,13.43
2023-10-19T11:43:58.899Z,13.57
2023-10-19T11:46:26.781Z,13.13
2023-10-19T11:48:53.563Z,14.27
2023-10-19T11:51:20.492Z,11.50
2023-10-19T11:53:47.086Z,11.90
2023-10-19T11:56:17.186Z,12.40
2023-10-19T11:58:45.079Z,13.40
2023-10-19T12:01:15.104Z,12.63
2023-10-19T12:03:43.085Z,13.20
2023-10-19T12:06:11.362Z,14.40
2023-10-19T12:08:39.345Z,15.05
2023-10-19T12:11:16.360Z,13.57
2023-10-19T12:13:48.157Z,14.02
2023-10-19T12:16:20.876Z,12.65
2023-10-19T12:18:49.744Z,12.40
2023-10-19T12:21:19.167Z,13.07
2023-10-19T12:23:55.671Z,12.63
2023-10-19T12:26:22.316Z,12.30
2023-10-19T12:28:50.574Z,13.48
2023-10-19T12:31:20.495Z,13.07
2023-10-19T12:33:47.473Z,14.52
2023-10-19T12:36:29.392Z,12.88
2023-10-19T12:38:56.380Z,12.63
2023-10-19T12:41:23.279Z,13.85
2023-10-19T12:43:53.531Z,12.90
2023-10-19T12:46:20.768Z,13.18
2023-10-19T12:48:50.193Z,13.43
2023-10-19T12:51:19.434Z,13.02
2023-10-19T12:53:47.396Z,13.68
2023-10-19T12:56:14.244Z,12.73
2023-10-19T12:58:42.596Z,12.13
2023-10-19T13:01:17.389Z,14.13
2023-10-19T13:03:46.660Z,13.57
2023-10-19T13:06:14.850Z,12.52
2023-10-19T13:08:44.364Z,13.80
2023-10-19T13:11:17.358Z,14.82
2023-10-19T13:13:44.993Z,13.00
2023-10-19T13:16:11.685Z,14.25
2023-10-19T13:18:41.274Z,12.32
2023-10-19T13:21:10.668Z,12.13
2023-10-19T13:23:37.350Z,11.68
2023-10-19T13:26:18.341Z,17.52
2023-10-19T13:28:46.028Z,20.38
2023-10-19T13:31:15.138Z,15.07
2023-10-19T13:33:42.895Z,13.20
2023-10-19T13:36:09.956Z,11.95
2023-10-19T13:38:36.720Z,12.82
2023-10-19T13:41:11.349Z,12.98
2023-10-19T13:43:40.338Z,13.90
2023-10-19T13:46:07.204Z,12.33
2023-10-19T13:48:34.021Z,12.27
2023-10-19T13:51:14.051Z,13.18
2023-10-19T13:53:41.332Z,11.35
2023-10-19T13:56:11.977Z,12.13
2023-10-19T13:58:39.237Z,12.53
2023-10-19T14:01:13.281Z,11.43
2023-10-19T14:03:41.796Z,11.23
2023-10-19T14:06:18.199Z,12.95
2023-10-19T14:08:44.802Z,13.00
2023-10-19T14:11:12.529Z,13.77
2023-10-19T14:13:41.863Z,12.88
2023-10-19T14:16:09.596Z,12.82
2023-10-19T14:18:37.949Z,13.50
2023-10-19T14:21:15.905Z,13.20
2023-10-19T14:23:43.754Z,13.90
2023-10-19T14:26:11.515Z,13.88
2023-10-19T14:28:38.406Z,13.38
2023-10-19T14:31:05.419Z,12.40
2023-10-19T14:33:32.367Z,12.20
2023-10-19T14:35:58.869Z,13.23
2023-10-19T14:38:28.536Z,14.82
2023-10-19T14:40:55.100Z,13.82
2023-10-19T14:43:21.959Z,13.80
2023-10-19T14:45:48.559Z,12.75
2023-10-19T14:48:16.098Z,14.53
2023-10-19T14:53:41.861Z,14.90
2023-10-19T14:56:09.159Z,14.43
2023-10-19T14:58:35.887Z,12.98
2023-10-19T15:01:02.495Z,15.00
2023-10-19T15:03:30.144Z,15.43
2023-10-19T15:05:58.946Z,13.82
2023-10-19T15:08:27.891Z,13.52
2023-10-19T15:10:55.675Z,13.77
2023-10-19T15:13:22.645Z,13.32
2023-10-19T15:15:49.231Z,13.37
2023-10-19T15:18:15.822Z,14.70
2023-10-19T15:20:42.789Z,14.70
2023-10-19T15:23:09.526Z,14.82
2023-10-19T15:25:37.955Z,15.40
2023-10-19T15:28:05.962Z,15.97
2023-10-19T15:30:32.698Z,14.20
2023-10-19T15:32:59.273Z,14.68
2023-10-19T15:35:28.568Z,14.73
2023-10-19T15:37:56.297Z,15.55
2023-10-19T15:40:25.148Z,13.77
2023-10-19T15:42:54.763Z,14.95
2023-10-19T15:45:22.859Z,15.38
2023-10-19T15:47:53.097Z,14.30
2023-10-19T15:50:19.664Z,15.63
2023-10-19T15:52:46.496Z,13.93
2023-10-19T15:55:15.352Z,14.90
2023-10-19T15:57:43.155Z,15.93
2023-10-19T16:00:15.240Z,18.05
2023-10-19T16:02:43.538Z,16.20
2023-10-19T16:05:16.625Z,17.60
2023-10-19T16:07:44.364Z,15.73
2023-10-19T16:10:11.867Z,16.40
2023-10-19T16:12:40.208Z,16.95
2023-10-19T16:15:10.377Z,15.98
2023-10-19T16:17:38.104Z,15.77
2023-10-19T16:20:07.663Z,19.08
2023-10-19T16:22:35.033Z,18.52
2023-10-19T16:25:01.920Z,19.67
2023-10-19T16:27:28.817Z,19.52
2023-10-19T16:29:55.896Z,22.60
2023-10-19T16:32:23.662Z,20.75
2023-10-19T16:34:50.885Z,23.30
2023-10-19T16:37:18.634Z,18.50
2023-10-19T16:39:45.642Z,23.50
2023-10-19T16:42:12.939Z,21.90
2023-10-19T16:44:39.792Z,21.83
2023-10-19T16:47:06.989Z,21.95
2023-10-19T16:49:36.230Z,19.63
2023-10-19T16:52:03.227Z,21.33
2023-10-19T16:54:30.642Z,21.90
2023-10-19T16:56:57.980Z,20.83
2023-10-19T16:59:24.857Z,20.85
2023-10-19T17:01:51.567Z,24.48
2023-10-19T17:04:18.871Z,21.50
2023-10-19T17:06:46.463Z,20.90
2023-10-19T17:09:21.260Z,20.55
2023-10-19T17:11:49.573Z,21.90
2023-10-19T17:14:17.303Z,23.30
2023-10-19T17:16:45.662Z,22.67
2023-10-19T17:19:12.531Z,27.50
2023-10-19T17:21:43.676Z,19.92
2023-10-19T17:24:10.561Z,20.40
2023-10-19T17:26:37.124Z,26.45
2023-10-19T17:29:04.179Z,24.38
2023-10-19T17:31:30.859Z,22.13
2023-10-19T17:33:58.163Z,26.05
2023-10-19T17:36:25.536Z,20.25
2023-10-19T17:38:52.563Z,19.27
2023-10-19T17:41:20.894Z,23.60
2023-10-19T17:43:48.527Z,25.10
2023-10-19T17:46:16.134Z,28.90
2023-10-19T17:48:44.672Z,20.58
2023-10-19T17:51:12.620Z,21.35
2023-10-19T17:53:40.228Z,19.08
2023-10-19T17:56:07.743Z,20.80
2023-10-19T17:58:35.318Z,26.42
2023-10-19T18:01:06.511Z,23.38
2023-10-19T18:03:34.985Z,26.30
2023-10-19T18:06:02.744Z,24.33
2023-10-19T18:08:30.309Z,23.57
2023-10-19T18:10:57.701Z,24.15
2023-10-19T18:13:24.725Z,21.13
2023-10-19T18:15:53.464Z,24.92
2023-10-19T18:18:22.325Z,22.20
2023-10-19T18:20:49.328Z,19.97
2023-10-19T18:23:16.259Z,28.20
2023-10-19T18:25:43.789Z,21.30
2023-10-19T18:28:11.232Z,24.10
2023-10-19T18:30:38.150Z,22.60
2023-10-19T18:33:07.721Z,22.53
2023-10-19T18:35:35.884Z,22.25
2023-10-19T18:38:02.692Z,24.70
2023-10-19T18:40:34.898Z,24.10
2023-10-19T18:43:02.336Z,22.13
2023-10-19T18:45:28.967Z,22.23
2023-10-19T18:47:56.456Z,25.10
2023-10-19T18:52:53.719Z,26.05
2023-10-19T18:55:23.960Z,27.48
2023-10-19T18:57:51.341Z,26.27
2023-10-19T19:00:25.257Z,26.15
2023-10-19T19:02:53.060Z,30.40
2023-10-19T19:05:20.117Z,28.10
2023-10-19T19:07:47.345Z,26.10
2023-10-19T19:10:14.241Z,27.97
2023-10-19T19:12:40.954Z,32.75
2023-10-19T19:15:08.103Z,25.85
2023-10-19T19:17:34.767Z,32.15
2023-10-19T19:20:03.258Z,26.42
2023-10-19T19:22:32.523Z,23.87
2023-10-19T19:24:59.357Z,30.80
2023-10-19T19:27:26.011Z,30.35
2023-10-19T19:29:52.618Z,27.38
2023-10-19T19:32:19.228Z,29.25
2023-10-19T19:34:47.344Z,31.77
2023-10-19T19:37:14.674Z,27.83
2023-10-19T19:39:45.659Z,24.58
2023-10-19T19:42:12.782Z,28.75
2023-10-19T19:44:40.427Z,30.13
2023-10-19T19:47:07.696Z,28.17
2023-10-19T19:49:34.762Z,28.65
2023-10-19T19:52:02.786Z,31.02
2023-10-19T19:54:29.541Z,26.92
2023-10-19T19:56:56.167Z,27.52
2023-10-19T19:59:23.493Z,26.00
2023-10-19T20:01:50.603Z,27.90
2023-10-19T20:04:17.459Z,24.92
2023-10-19T20:06:44.140Z,27.88
2023-10-19T20:09:14.554Z,27.85
2023-10-19T20:11:41.773Z,35.93
2023-10-19T20:14:08.463Z,28.02
2023-10-19T20:16:35.491Z,26.48
2023-10-19T20:19:02.185Z,29.83
2023-10-19T20:21:32.982Z,36.08
2023-10-19T20:24:04.403Z,30.87
2023-10-19T20:26:30.951Z,29.45
2023-10-19T20:28:57.796Z,27.67
2023-10-19T20:31:27.497Z,30.63
2023-10-19T20:33:54.303Z,34.20
2023-10-19T20:36:20.934Z,31.23
2023-10-19T20:38:48.755Z,31.00
2023-10-19T20:41:15.451Z,32.58
2023-10-19T20:43:44.012Z,38.08
2023-10-19T20:46:10.813Z,28.80
2023-10-19T20:48:37.529Z,30.33
2023-10-19T20:51:06.840Z,27.52
2023-10-19T20:53:34.089Z,28.77
2023-10-19T20:56:01.899Z,30.23
2023-10-19T20:58:29.984Z,33.80
2023-10-19T21:00:56.577Z,34.13
2023-10-19T21:03:23.234Z,29.20
2023-10-19T21:05:49.927Z,28.20
2023-10-19T21:08:17.010Z,37.78
2023-10-19T21:10:43.674Z,30.30
2023-10-19T21:13:10.340Z,30.07
2023-10-19T21:15:36.857Z,30.30
2023-10-19T21:18:03.604Z,34.63
2023-10-19T21:20:30.236Z,32.78
2023-10-19T21:22:57.119Z,30.20
2023-10-19T21:25:26.609Z,28.27
2023-10-19T21:27:54.223Z,30.00
2023-10-19T21:30:20.799Z,28.25
2023-10-19T21:32:47.966Z,26.70
2023-10-19T21:35:16.331Z,32.17
2023-10-19T21:37:43.456Z,35.93
2023-10-19T21:40:12.353Z,31.88
2023-10-19T21:42:40.530Z,27.75
2023-10-19T21:45:09.239Z,24.13
2023-10-19T21:47:36.081Z,30.15
2023-10-19T21:50:05.841Z,32.63
2023-10-19T21:52:32.545Z,28.95
2023-10-19T21:54:59.124Z,28.27
2023-10-19T21:57:26.739Z,30.05
2023-10-19T21:59:53.670Z,28.45
2023-10-19T22:02:20.603Z,30.43
2023-10-19T22:04:47.334Z,32.90
2023-10-19T22:07:16.795Z,29.10
2023-10-19T22:09:43.668Z,36.35
2023-10-19T22:12:14.561Z,30.85
2023-10-19T22:14:42.139Z,31.70
2023-10-19T22:17:08.762Z,31.38
2023-10-19T22:19:35.363Z,26.50
2023-10-19T22:22:01.861Z,24.52
2023-10-19T22:24:29.473Z,25.23
2023-10-19T22:26:56.579Z,26.63
2023-10-19T22:29:23.349Z,29.25
2023-10-19T22:31:52.407Z,27.33
2023-10-19T22:34:19.935Z,30.15
2023-10-19T22:36:46.840Z,28.92
2023-10-19T22:39:13.763Z,31.97
2023-10-19T22:41:42.781Z,29.17
2023-10-19T22:44:09.668Z,30.65
2023-10-19T22:46:36.645Z,24.67
2023-10-19T22:49:03.453Z,25.90
2023-10-19T22:51:30.534Z,28.03
2023-10-19T22:53:58.415Z,24.88
2023-10-19T22:56:25.174Z,28.88
2023-10-19T22:58:55.214Z,24.60
2023-10-19T23:01:22.375Z,27.77
2023-10-19T23:03:49.172Z,26.80
2023-10-19T23:06:15.728Z,24.63
2023-10-19T23:08:42.920Z,23.98
2023-10-19T23:11:10.624Z,23.85
2023-10-19T23:13:42.589Z,26.60
2023-10-19T23:16:09.414Z,28.57
2023-10-19T23:18:38.521Z,25.63
2023-10-19T23:21:08.051Z,23.23
2023-10-19T23:23:35.694Z,24.27
2023-10-19T23:26:04.385Z,27.52
2023-10-19T23:28:34.658Z,26.43
2023-10-19T23:31:11.006Z,32.13
2023-10-19T23:33:37.920Z,27.33
2023-10-19T23:36:04.738Z,24.02
2023-10-19T23:38:31.255Z,24.90
2023-10-19T23:40:57.895Z,24.33
2023-10-19T23:43:25.636Z,26.33
2023-10-19T23:45:52.851Z,23.80
2023-10-19T23:48:21.279Z,27.13
2023-10-19T23:50:49.113Z,27.13
2023-10-19T23:53:17.513Z,26.23
2023-10-19T23:55:47.522Z,21.90
2023-10-19T23:58:15.567Z,19.98
